Aquinnah, Massachusetts
Current Conditions -  °F | °C
As of 5:53 AM on Saturday 25 Oct 2014 (Local Time) from KMVY Reporting Station
Few Clouds Few Clouds  
Wind Chill: 42°   Ceiling: Unl
Heat Index: 46°   Visibility: 10mi
Dew Point: 43°   Wind: 7mph
Humidity: 89%   Direction: 300°WNW
Pressure: 29.77"   Gusts: NA
Location:  41.3536°N, 70.7417°W
Report Text: KMVY 250953Z 30006KT 10SM FEW055 08/06 A2977 RMK AO2 SLP081 T00780061
Loading
Personal Weather Stations






























Interactive Weather Map
Tropical Storm Tracking
New forecast layout! Learn more

10-Day Weather Forecast

Advertisements
Track Severe Weather on mobile